Time;durP1;ratioP1;P1;durP2;ratioP2;P2;SDS_P1;SDS_P2;PMS_P1;PMS_P2;Temp;Humidity;BMP_temperature;BMP_pressure;BME280_temperature;BME280_humidity;BME280_pressure;Samples;Min_cycle;Max_cycle;Signal;HPM_P1;HPM_P2
2023/05/15 00:00:13;;;;;;;;;;;;;;;21.23;nan;101295.34;5023307;28;19999;-80
2023/05/15 00:02:39;;;;;;;;;;;;;;;21.20;nan;101282.31;5027707;28;20376;-80
2023/05/15 00:05:05;;;;;;;;;;;;;;;21.16;nan;101277.78;5023588;28;19960;-80
2023/05/15 00:07:30;;;;;;;;;;;;;;;21.08;nan;101276.59;5024937;28;19996;-80
2023/05/15 00:09:56;;;;;;;;;;;;;;;20.98;nan;101266.69;5026616;28;20011;-80
2023/05/15 00:12:21;;;;;;;;;;;;;;;20.93;nan;101271.47;5024080;28;19996;-80
2023/05/15 00:14:46;;;;;;;;;;;;;;;20.91;nan;101265.53;5027110;28;19921;-80
2023/05/15 00:17:12;;;;;;;;;;;;;;;20.87;nan;101262.59;5027974;28;19936;-80
2023/05/15 00:19:37;;;;;;;;;;;;;;;20.79;nan;101258.66;5026209;28;19917;-80
2023/05/15 00:22:02;;;;;;;;;;;;;;;20.71;nan;101258.56;5027839;28;19921;-80
2023/05/15 00:24:28;;;;;;;;;;;;;;;20.65;nan;101260.59;5024797;28;19921;-80
2023/05/15 00:26:53;;;;;;;;;;;;;;;20.62;nan;101253.03;5025994;28;19964;-80
2023/05/15 00:29:18;;;;;;;;;;;;;;;20.56;nan;101253.44;5027719;28;19933;-80
2023/05/15 00:31:44;;;;;;;;;;;;;;;20.50;nan;101250.03;5027916;28;20376;-80
2023/05/15 00:34:09;;;;;;;;;;;;;;;20.43;nan;101247.69;5023953;28;19925;-80
2023/05/15 00:36:35;;;;;;;;;;;;;;;20.37;nan;101246.13;5025288;28;19996;-80
2023/05/15 00:39:00;;;;;;;;;;;;;;;20.33;nan;101256.03;5027066;28;20444;-80
2023/05/15 00:41:27;;;;;;;;;;;;;;;20.30;nan;101255.81;5026923;28;20305;-81
2023/05/15 00:43:54;;;;;;;;;;;;;;;20.23;nan;101248.03;5028036;28;19932;-80
2023/05/15 00:46:20;;;;;;;;;;;;;;;20.18;nan;101242.69;5025626;28;19917;-81
2023/05/15 00:48:47;;;;;;;;;;;;;;;20.11;nan;101240.38;5027760;28;19925;-80
2023/05/15 00:51:12;;;;;;;;;;;;;;;20.05;nan;101233.41;5027695;28;19992;-80
2023/05/15 00:53:38;;;;;;;;;;;;;;;19.97;nan;101236.81;5026811;28;19925;-80
2023/05/15 00:56:04;;;;;;;;;;;;;;;19.87;nan;101235.06;5024425;28;19925;-80
2023/05/15 00:58:30;;;;;;;;;;;;;;;19.83;nan;101230.53;5023308;28;20052;-80
2023/05/15 01:00:56;;;;;;;;;;;;;;;19.81;nan;101232.75;5027953;28;19925;-80
2023/05/15 01:03:22;;;;;;;;;;;;;;;19.78;nan;101228.72;5026015;28;20403;-80
2023/05/15 01:05:47;;;;;;;;;;;;;;;19.72;nan;101223.66;5023524;28;19921;-80
2023/05/15 01:08:20;;;;;;;;;;;;;;;19.65;nan;101223.22;5025124;28;19929;-80
2023/05/15 01:10:47;;;;;;;;;;;;;;;19.58;nan;101218.19;5025555;28;19927;-80
2023/05/15 01:13:13;;;;;;;;;;;;;;;19.56;nan;101218.47;5026104;28;20381;-80
2023/05/15 01:15:39;;;;;;;;;;;;;;;19.53;nan;101223.66;5024216;28;19979;-79
2023/05/15 01:18:06;;;;;;;;;;;;;;;19.47;nan;101219.41;5028167;28;20001;-83
2023/05/15 01:20:33;;;;;;;;;;;;;;;19.40;nan;101213.56;5027206;28;19921;-80
2023/05/15 01:23:05;;;;;;;;;;;;;;;19.30;nan;101209.06;5026436;28;19928;-81
2023/05/15 01:25:45;;;;;;;;;;;;;;;19.22;nan;101212.47;5023936;28;19917;-80
2023/05/15 01:28:12;;;;;;;;;;;;;;;19.16;nan;101206.28;5023117;28;20020;-80
2023/05/15 01:30:39;;;;;;;;;;;;;;;19.15;nan;101210.09;5025094;28;19924;-80
2023/05/15 01:33:05;;;;;;;;;;;;;;;19.14;nan;101208.50;5023275;28;19945;-80
2023/05/15 01:35:34;;;;;;;;;;;;;;;19.11;nan;101205.56;5021468;28;19956;-80
2023/05/15 01:38:14;;;;;;;;;;;;;;;19.01;nan;101212.75;5021902;28;19963;-81
2023/05/15 01:40:41;;;;;;;;;;;;;;;18.92;nan;101200.94;5021120;28;19917;-80
2023/05/15 01:43:10;;;;;;;;;;;;;;;18.87;nan;101205.63;5027243;28;20333;-80
2023/05/15 01:45:36;;;;;;;;;;;;;;;18.82;nan;101201.06;5027007;28;19917;-81
2023/05/15 01:48:05;;;;;;;;;;;;;;;18.74;nan;101200.91;5023408;28;19917;-81
2023/05/15 01:50:32;;;;;;;;;;;;;;;18.66;nan;101203.16;5020326;28;19954;-81
2023/05/15 01:52:59;;;;;;;;;;;;;;;18.65;nan;101200.75;5024635;28;20423;-80
2023/05/15 01:55:26;;;;;;;;;;;;;;;18.65;nan;101206.16;5026941;28;19925;-81
2023/05/15 01:57:51;;;;;;;;;;;;;;;18.64;nan;101197.22;5022737;28;19925;-81
2023/05/15 02:00:17;;;;;;;;;;;;;;;18.61;nan;101199.69;5021051;28;20532;-80
2023/05/15 02:02:43;;;;;;;;;;;;;;;18.56;nan;101202.47;5026553;28;19967;-80
2023/05/15 02:05:10;;;;;;;;;;;;;;;18.52;nan;101201.44;5023466;28;19917;-80
2023/05/15 02:07:36;;;;;;;;;;;;;;;18.46;nan;101205.28;5023565;28;19917;-80
2023/05/15 02:10:02;;;;;;;;;;;;;;;18.41;nan;101196.13;5026132;28;19924;-81
2023/05/15 02:12:27;;;;;;;;;;;;;;;18.36;nan;101198.91;5021578;28;19917;-81
2023/05/15 02:14:53;;;;;;;;;;;;;;;18.32;nan;101187.03;5023863;28;19918;-80
2023/05/15 02:17:19;;;;;;;;;;;;;;;18.25;nan;101194.69;5024896;28;19921;-81
2023/05/15 02:19:45;;;;;;;;;;;;;;;18.20;nan;101192.03;5015830;28;20055;-81
2023/05/15 02:22:10;;;;;;;;;;;;;;;18.18;nan;101190.72;5023814;28;20555;-80
2023/05/15 02:24:35;;;;;;;;;;;;;;;18.13;nan;101183.41;5022688;28;20560;-80
2023/05/15 02:27:01;;;;;;;;;;;;;;;18.07;nan;101184.56;5026110;28;19921;-80
2023/05/15 02:29:51;;;;;;;;;;;;;;;18.05;nan;101186.75;5024761;28;19917;-80
2023/05/15 02:32:29;;;;;;;;;;;;;;;18.03;nan;101178.94;5025035;28;19972;-80
2023/05/15 02:35:13;;;;;;;;;;;;;;;18.03;nan;101172.69;5025858;28;19920;-80
2023/05/15 02:37:40;;;;;;;;;;;;;;;18.02;nan;101171.06;5023139;28;19999;-80
2023/05/15 02:40:10;;;;;;;;;;;;;;;17.97;nan;101160.28;5022505;28;19929;-80
2023/05/15 02:42:35;;;;;;;;;;;;;;;17.92;nan;101161.13;5022162;28;19944;-80
2023/05/15 02:45:01;;;;;;;;;;;;;;;17.90;nan;101159.81;5021594;28;19982;-80
2023/05/15 02:47:27;;;;;;;;;;;;;;;17.90;nan;101157.09;5023928;28;20011;-80
2023/05/15 02:49:53;;;;;;;;;;;;;;;17.89;nan;101158.19;5019979;28;20008;-80
2023/05/15 02:52:18;;;;;;;;;;;;;;;17.84;nan;101150.13;5020213;28;19921;-80
2023/05/15 02:54:44;;;;;;;;;;;;;;;17.79;nan;101140.97;5022436;28;19932;-80
2023/05/15 02:57:09;;;;;;;;;;;;;;;17.74;nan;101140.19;5021761;28;19924;-80
2023/05/15 02:59:35;;;;;;;;;;;;;;;17.71;nan;101132.63;5021939;28;19922;-80
2023/05/15 03:02:02;;;;;;;;;;;;;;;17.69;nan;101134.81;5016879;28;19924;-81
2023/05/15 03:04:27;;;;;;;;;;;;;;;17.67;nan;101132.38;5020649;28;20068;-80
2023/05/15 03:06:52;;;;;;;;;;;;;;;17.66;nan;101136.16;5019461;28;19928;-80
2023/05/15 03:09:18;;;;;;;;;;;;;;;17.62;nan;101132.41;5022818;28;19916;-80
2023/05/15 03:11:43;;;;;;;;;;;;;;;17.61;nan;101127.28;5019754;28;19925;-80
2023/05/15 03:14:08;;;;;;;;;;;;;;;17.58;nan;101134.06;5024157;28;19924;-80
2023/05/15 03:16:35;;;;;;;;;;;;;;;17.59;nan;101134.88;5022494;28;19917;-80
2023/05/15 03:19:01;;;;;;;;;;;;;;;17.59;nan;101130.25;5020899;28;19928;-79
2023/05/15 03:21:26;;;;;;;;;;;;;;;17.60;nan;101131.91;5022960;28;19921;-81
2023/05/15 03:23:51;;;;;;;;;;;;;;;17.56;nan;101130.03;5023033;28;19955;-80
2023/05/15 03:26:17;;;;;;;;;;;;;;;17.56;nan;101130.03;5022467;28;20408;-80
2023/05/15 03:28:42;;;;;;;;;;;;;;;17.54;nan;101122.19;5022293;28;20383;-80
2023/05/15 03:31:07;;;;;;;;;;;;;;;17.54;nan;101116.75;5023348;28;20292;-80
2023/05/15 03:33:33;;;;;;;;;;;;;;;17.55;nan;101112.97;5018424;28;20372;-80
2023/05/15 03:35:58;;;;;;;;;;;;;;;17.56;nan;101111.06;5019571;28;19920;-80
2023/05/15 03:38:24;;;;;;;;;;;;;;;17.56;nan;101103.75;5021546;28;20020;-80
2023/05/15 03:40:49;;;;;;;;;;;;;;;17.61;nan;101114.56;5017817;28;20070;-80
2023/05/15 03:43:15;;;;;;;;;;;;;;;17.65;nan;101112.88;5020541;28;20365;-80
2023/05/15 03:45:40;;;;;;;;;;;;;;;17.68;nan;101106.91;5022589;28;19920;-80
2023/05/15 03:48:05;;;;;;;;;;;;;;;17.67;nan;101109.88;5024996;28;19918;-80
2023/05/15 03:50:31;;;;;;;;;;;;;;;17.67;nan;101110.69;5020374;28;19921;-80
2023/05/15 03:52:56;;;;;;;;;;;;;;;17.67;nan;101102.56;5028463;28;19921;-80
2023/05/15 03:55:21;;;;;;;;;;;;;;;17.67;nan;101110.69;5024258;28;19925;-80
2023/05/15 03:57:47;;;;;;;;;;;;;;;17.67;nan;101105.25;5027449;28;19929;-80
2023/05/15 04:00:12;;;;;;;;;;;;;;;17.67;nan;101101.75;5024177;28;19917;-80
2023/05/15 04:02:38;;;;;;;;;;;;;;;17.68;nan;101103.41;5026009;28;19976;-79
2023/05/15 04:05:04;;;;;;;;;;;;;;;17.63;nan;101093.38;5022043;28;20389;-79
2023/05/15 04:07:29;;;;;;;;;;;;;;;17.59;nan;101092.31;5023925;28;19917;-80
2023/05/15 04:09:54;;;;;;;;;;;;;;;17.61;nan;101102.91;5027373;28;19920;-80
2023/05/15 04:12:21;;;;;;;;;;;;;;;17.64;nan;101088.78;5024016;28;20308;-80
2023/05/15 04:14:46;;;;;;;;;;;;;;;17.70;nan;101093.88;5025809;28;20462;-81
2023/05/15 04:17:11;;;;;;;;;;;;;;;17.72;nan;101094.41;5018839;28;19917;-80
2023/05/15 04:19:37;;;;;;;;;;;;;;;17.75;nan;101091.09;5024331;28;19921;-80
2023/05/15 04:22:02;;;;;;;;;;;;;;;17.76;nan;101090.00;5025550;28;19925;-80
2023/05/15 04:24:27;;;;;;;;;;;;;;;17.72;nan;101091.69;5026286;28;20996;-80
2023/05/15 04:26:53;;;;;;;;;;;;;;;17.72;nan;101093.59;5023793;28;19925;-80
2023/05/15 04:29:18;;;;;;;;;;;;;;;17.75;nan;101093.81;5026313;28;19943;-80
2023/05/15 04:31:43;;;;;;;;;;;;;;;17.81;nan;101084.56;5025611;28;19917;-80
2023/05/15 04:34:09;;;;;;;;;;;;;;;17.86;nan;101091.81;5026908;28;19940;-81
2023/05/15 04:36:34;;;;;;;;;;;;;;;17.92;nan;101077.09;5018701;28;19976;-80
2023/05/15 04:39:00;;;;;;;;;;;;;;;17.95;nan;101078.41;5021086;28;20007;-80
2023/05/15 04:41:25;;;;;;;;;;;;;;;17.96;nan;101074.63;5025256;28;20402;-80
2023/05/15 04:43:50;;;;;;;;;;;;;;;17.93;nan;101078.72;5028560;28;19921;-80
2023/05/15 04:46:16;;;;;;;;;;;;;;;17.96;nan;101069.22;5024704;28;19924;-80
2023/05/15 04:48:41;;;;;;;;;;;;;;;18.03;nan;101075.09;5026227;28;20411;-80
2023/05/15 04:51:06;;;;;;;;;;;;;;;18.10;nan;101081.75;5022717;28;20463;-81
2023/05/15 04:53:32;;;;;;;;;;;;;;;18.17;nan;101081.44;5023626;28;20420;-80
2023/05/15 04:55:57;;;;;;;;;;;;;;;18.23;nan;101079.44;5024350;28;20490;-80
2023/05/15 04:58:22;;;;;;;;;;;;;;;18.29;nan;101079.06;5027091;28;20384;-80
2023/05/15 05:00:48;;;;;;;;;;;;;;;18.31;nan;101076.06;5024439;28;19943;-80
2023/05/15 05:03:13;;;;;;;;;;;;;;;18.34;nan;101083.66;5024616;28;20013;-80
2023/05/15 05:05:38;;;;;;;;;;;;;;;18.34;nan;101087.16;5024351;28;20012;-80
2023/05/15 05:08:04;;;;;;;;;;;;;;;18.39;nan;101091.72;5025614;28;19917;-80
2023/05/15 05:10:29;;;;;;;;;;;;;;;18.45;nan;101089.72;5026144;28;19916;-80
2023/05/15 05:12:55;;;;;;;;;;;;;;;18.48;nan;101094.56;5025185;28;19925;-80
2023/05/15 05:15:20;;;;;;;;;;;;;;;18.48;nan;101094.56;5023227;28;19995;-80
2023/05/15 05:17:45;;;;;;;;;;;;;;;18.46;nan;101094.06;5028313;28;20296;-80
2023/05/15 05:20:11;;;;;;;;;;;;;;;18.46;nan;101096.75;5024132;28;20415;-81
2023/05/15 05:22:37;;;;;;;;;;;;;;;18.49;nan;101090.75;5024396;28;20411;-81
2023/05/15 05:25:02;;;;;;;;;;;;;;;18.55;nan;101095.84;5025029;28;20004;-81
2023/05/15 05:27:27;;;;;;;;;;;;;;;18.62;nan;101092.75;5021600;28;19922;-81
2023/05/15 05:29:53;;;;;;;;;;;;;;;18.65;nan;101090.28;5021763;28;19924;-82
2023/05/15 05:32:18;;;;;;;;;;;;;;;18.68;nan;101092.44;5019930;28;19918;-81
2023/05/15 05:34:44;;;;;;;;;;;;;;;18.74;nan;101084.19;5017671;28;19936;-81
2023/05/15 05:37:09;;;;;;;;;;;;;;;18.81;nan;101092.78;5020081;28;19925;-81
2023/05/15 05:39:34;;;;;;;;;;;;;;;18.84;nan;101090.28;5026450;28;19923;-81
2023/05/15 05:42:00;;;;;;;;;;;;;;;18.91;nan;101096.16;5019831;28;19925;-81
2023/05/15 05:44:25;;;;;;;;;;;;;;;18.99;nan;101095.47;5021155;28;19921;-81
2023/05/15 05:46:51;;;;;;;;;;;;;;;19.07;nan;101090.47;5025986;28;19921;-81
2023/05/15 05:49:16;;;;;;;;;;;;;;;19.09;nan;101089.06;5020319;28;20036;-81
2023/05/15 05:51:41;;;;;;;;;;;;;;;19.12;nan;101095.81;5021773;28;19971;-82
2023/05/15 05:54:07;;;;;;;;;;;;;;;19.12;nan;101096.63;5020431;28;20641;-81
2023/05/15 05:56:32;;;;;;;;;;;;;;;19.20;nan;101086.97;5022437;28;19917;-81
2023/05/15 05:59:00;;;;;;;;;;;;;;;19.26;nan;101089.34;5022827;28;20345;-81
2023/05/15 06:01:26;;;;;;;;;;;;;;;19.32;nan;101079.97;5025318;28;20367;-81
2023/05/15 06:03:51;;;;;;;;;;;;;;;19.43;nan;101063.50;5020359;28;19921;-81
2023/05/15 06:06:17;;;;;;;;;;;;;;;19.51;nan;101068.25;5022057;28;20399;-81
2023/05/15 06:08:42;;;;;;;;;;;;;;;19.58;nan;101071.41;5026970;28;19917;-82
2023/05/15 06:11:07;;;;;;;;;;;;;;;19.65;nan;101069.09;5021115;28;20007;-81
2023/05/15 06:13:33;;;;;;;;;;;;;;;19.71;nan;101065.16;5025987;28;20490;-81
2023/05/15 06:15:58;;;;;;;;;;;;;;;19.71;nan;101054.28;5023561;28;19924;-81
2023/05/15 06:18:24;;;;;;;;;;;;;;;19.74;nan;101048.25;5026836;28;19917;-82
2023/05/15 06:20:49;;;;;;;;;;;;;;;19.78;nan;101032.16;5023127;28;19935;-81
2023/05/15 06:23:14;;;;;;;;;;;;;;;19.82;nan;101033.16;5024868;28;20420;-82
2023/05/15 06:25:40;;;;;;;;;;;;;;;19.84;nan;101031.75;5021975;28;19928;-81
2023/05/15 06:28:05;;;;;;;;;;;;;;;19.89;nan;101028.91;5021454;28;20003;-81
2023/05/15 06:30:30;;;;;;;;;;;;;;;19.97;nan;101023.88;5018370;28;19921;-81
2023/05/15 06:32:56;;;;;;;;;;;;;;;20.04;nan;101022.34;5025629;28;19917;-81
2023/05/15 06:35:24;;;;;;;;;;;;;;;20.11;nan;101024.69;5024648;28;19925;-81
2023/05/15 06:37:50;;;;;;;;;;;;;;;20.15;nan;101020.22;5025858;28;19925;-81
2023/05/15 06:40:16;;;;;;;;;;;;;;;20.15;nan;101012.06;5022341;28;19971;-81
2023/05/15 06:42:41;;;;;;;;;;;;;;;20.15;nan;101003.91;5027171;28;19925;-80
2023/05/15 06:45:07;;;;;;;;;;;;;;;20.17;nan;101005.22;5023636;28;19917;-81
2023/05/15 06:47:32;;;;;;;;;;;;;;;20.23;nan;101001.25;5025108;28;19917;-81
2023/05/15 06:49:57;;;;;;;;;;;;;;;20.30;nan;101000.06;5026877;28;19917;-81
2023/05/15 06:52:23;;;;;;;;;;;;;;;20.36;nan;100990.66;5020787;28;20377;-81
2023/05/15 06:54:48;;;;;;;;;;;;;;;20.40;nan;100988.91;5026144;28;19917;-81
2023/05/15 06:57:14;;;;;;;;;;;;;;;20.45;nan;100991.53;5023547;28;19925;-81
2023/05/15 06:59:39;;;;;;;;;;;;;;;20.50;nan;100977.81;5023655;28;20442;-80
2023/05/15 07:02:05;;;;;;;;;;;;;;;20.57;nan;100971.94;5020961;28;19921;-81
2023/05/15 07:04:30;;;;;;;;;;;;;;;20.65;nan;100966.56;5021668;28;19921;-80
2023/05/15 07:06:56;;;;;;;;;;;;;;;20.68;nan;100962.44;5024864;28;19963;-80
2023/05/15 07:09:21;;;;;;;;;;;;;;;20.66;nan;100964.66;5025985;28;19925;-80
2023/05/15 07:11:47;;;;;;;;;;;;;;;20.68;nan;100954.25;5025834;28;20303;-81
2023/05/15 07:14:12;;;;;;;;;;;;;;;20.65;nan;100952.16;5023548;28;19971;-81
2023/05/15 07:16:37;;;;;;;;;;;;;;;20.66;nan;100937.44;5023879;28;19924;-81
2023/05/15 07:19:03;;;;;;;;;;;;;;;20.67;nan;100928.94;5026260;28;19947;-80
2023/05/15 07:21:28;;;;;;;;;;;;;;;20.75;nan;100930.91;5024245;28;19986;-81
2023/05/15 07:23:53;;;;;;;;;;;;;;;20.79;nan;100917.47;5024323;28;19949;-81
2023/05/15 07:26:19;;;;;;;;;;;;;;;20.82;nan;100916.84;5024109;28;20495;-81
2023/05/15 07:28:44;;;;;;;;;;;;;;;20.88;nan;100912.88;5028387;28;20285;-81
2023/05/15 07:31:09;;;;;;;;;;;;;;;21.01;nan;100908.47;5027873;28;20362;-81
2023/05/15 07:33:35;;;;;;;;;;;;;;;21.14;nan;100899.34;5026372;28;19917;-81
2023/05/15 07:36:00;;;;;;;;;;;;;;;21.27;nan;100903.94;5027726;28;20453;-81
2023/05/15 07:38:25;;;;;;;;;;;;;;;21.45;nan;100903.97;5029682;28;19943;-81
2023/05/15 07:40:50;;;;;;;;;;;;;;;21.60;nan;100898.09;5026489;28;19948;-81
2023/05/15 07:43:16;;;;;;;;;;;;;;;21.76;nan;100898.44;5029819;28;19924;-82
2023/05/15 07:45:41;;;;;;;;;;;;;;;21.83;nan;100898.75;5030516;28;20319;-81
2023/05/15 07:48:14;;;;;;;;;;;;;;;21.95;nan;100905.19;5023254;28;19931;-81
2023/05/15 07:50:39;;;;;;;;;;;;;;;22.10;nan;100903.94;5028670;28;20391;-81
2023/05/15 07:53:04;;;;;;;;;;;;;;;22.28;nan;100899.25;5029151;28;20528;-81
2023/05/15 07:55:30;;;;;;;;;;;;;;;22.46;nan;100900.84;5024652;28;19917;-81
2023/05/15 07:57:55;;;;;;;;;;;;;;;22.60;nan;100901.44;5029955;28;19917;-81
2023/05/15 08:00:20;;;;;;;;;;;;;;;22.72;nan;100894.50;5028562;28;20581;-81
2023/05/15 08:02:47;;;;;;;;;;;;;;;22.86;nan;100895.13;5030300;28;19960;-81
2023/05/15 08:05:12;;;;;;;;;;;;;;;22.98;nan;100897.16;5024888;28;19989;-81
2023/05/15 08:07:38;;;;;;;;;;;;;;;23.13;nan;100896.63;5029666;28;19960;-80
2023/05/15 08:10:04;;;;;;;;;;;;;;;23.24;nan;100900.59;5023520;28;20047;-81
2023/05/15 08:12:30;;;;;;;;;;;;;;;23.36;nan;100888.97;5026136;28;20389;-81
2023/05/15 08:14:56;;;;;;;;;;;;;;;23.47;nan;100890.16;5029037;28;19980;-81
2023/05/15 08:17:21;;;;;;;;;;;;;;;23.57;nan;100887.09;5023766;28;20385;-81
2023/05/15 08:19:47;;;;;;;;;;;;;;;23.67;nan;100883.94;5023460;28;19917;-81
2023/05/15 08:22:12;;;;;;;;;;;;;;;23.78;nan;100879.69;5018840;28;19956;-81
2023/05/15 08:24:38;;;;;;;;;;;;;;;23.88;nan;100878.50;5017314;28;19918;-81
2023/05/15 08:27:05;;;;;;;;;;;;;;;24.01;nan;100880.13;5018750;28;19930;-81
2023/05/15 08:29:30;;;;;;;;;;;;;;;24.16;nan;100883.41;5021627;28;20498;-81
2023/05/15 08:31:55;;;;;;;;;;;;;;;24.27;nan;100879.91;5020412;28;19996;-81
2023/05/15 08:34:21;;;;;;;;;;;;;;;24.41;nan;100879.63;5023030;28;19948;-81
2023/05/15 08:36:46;;;;;;;;;;;;;;;24.46;nan;100876.69;5029057;28;19947;-81
2023/05/15 08:39:11;;;;;;;;;;;;;;;24.53;nan;100871.44;5020115;28;19931;-81
2023/05/15 08:41:47;;;;;;;;;;;;;;;24.58;nan;100868.50;5029614;28;19935;-81
2023/05/15 08:44:13;;;;;;;;;;;;;;;24.68;nan;100867.25;5023320;28;19956;-81
2023/05/15 08:46:38;;;;;;;;;;;;;;;24.77;nan;100861.66;5029108;28;19917;-81
2023/05/15 08:49:10;;;;;;;;;;;;;;;24.82;nan;100859.53;5026661;28;20347;-81
2023/05/15 08:51:35;;;;;;;;;;;;;;;24.84;nan;100859.19;5024028;28;19917;-81
2023/05/15 08:54:01;;;;;;;;;;;;;;;24.88;nan;100855.41;5022124;28;20385;-81
2023/05/15 08:56:26;;;;;;;;;;;;;;;24.97;nan;100861.59;5026842;28;20674;-82
2023/05/15 08:58:52;;;;;;;;;;;;;;;25.05;nan;100859.09;5027330;28;19917;-82
2023/05/15 09:01:17;;;;;;;;;;;;;;;25.10;nan;100864.34;5020719;28;20011;-81
2023/05/15 09:03:42;;;;;;;;;;;;;;;25.18;nan;100868.94;5025400;28;19917;-82
2023/05/15 09:06:08;;;;;;;;;;;;;;;25.22;nan;100867.09;5021543;28;19925;-82
2023/05/15 09:08:34;;;;;;;;;;;;;;;25.31;nan;100859.53;5027558;28;19921;-82
2023/05/15 09:11:01;;;;;;;;;;;;;;;25.38;nan;100858.97;5023136;28;19917;-83
2023/05/15 09:13:26;;;;;;;;;;;;;;;25.47;nan;100860.41;5023615;28;19927;-82
2023/05/15 09:15:52;;;;;;;;;;;;;;;25.51;nan;100866.84;5028106;28;19940;-82
2023/05/15 09:18:17;;;;;;;;;;;;;;;25.56;nan;100854.81;5021891;28;19917;-82
2023/05/15 09:20:43;;;;;;;;;;;;;;;25.67;nan;100858.66;5023350;28;19944;-83
2023/05/15 09:23:21;;;;;;;;;;;;;;;25.80;nan;100856.72;5026668;28;20397;-82
2023/05/15 09:25:51;;;;;;;;;;;;;;;25.91;nan;100855.09;5022261;28;19971;-82
2023/05/15 09:28:24;;;;;;;;;;;;;;;26.00;nan;100850.22;5024235;28;19979;-82
2023/05/15 09:30:55;;;;;;;;;;;;;;;26.04;nan;100848.41;5024714;28;19917;-82
2023/05/15 09:33:26;;;;;;;;;;;;;;;26.10;nan;100844.25;5020941;28;20056;-82
2023/05/15 09:35:51;;;;;;;;;;;;;;;26.16;nan;100842.84;5025383;28;19923;-82
2023/05/15 09:38:17;;;;;;;;;;;;;;;26.24;nan;100849.34;5027634;28;19921;-82
2023/05/15 09:40:43;;;;;;;;;;;;;;;26.35;nan;100844.94;5024721;28;20292;-82
2023/05/15 09:43:11;;;;;;;;;;;;;;;26.45;nan;100847.19;5023345;28;19933;-83
2023/05/15 09:45:36;;;;;;;;;;;;;;;26.45;nan;100855.44;5027691;28;19924;-82
2023/05/15 09:48:06;;;;;;;;;;;;;;;26.46;nan;100839.75;5023835;28;20363;-82
2023/05/15 09:50:35;;;;;;;;;;;;;;;26.51;nan;100842.22;5020415;28;20012;-83
2023/05/15 09:53:01;;;;;;;;;;;;;;;26.58;nan;100847.91;5021105;28;20397;-84
2023/05/15 09:55:27;;;;;;;;;;;;;;;26.66;nan;100844.19;5023659;28;19995;-82
2023/05/15 09:58:07;;;;;;;;;;;;;;;26.71;nan;100840.38;5018478;28;20035;-83
2023/05/15 10:00:33;;;;;;;;;;;;;;;26.79;nan;100836.66;5026033;28;19966;-83
2023/05/15 10:03:00;;;;;;;;;;;;;;;26.84;nan;100827.34;5024940;28;20416;-82
2023/05/15 10:05:26;;;;;;;;;;;;;;;26.92;nan;100826.34;5017848;28;20222;-83
2023/05/15 10:07:53;;;;;;;;;;;;;;;26.95;nan;100825.66;5022643;28;20392;-82
2023/05/15 10:10:18;;;;;;;;;;;;;;;27.04;nan;100840.81;5021394;28;19928;-83
2023/05/15 10:12:44;;;;;;;;;;;;;;;27.01;nan;100832.50;5019474;28;19921;-82
2023/05/15 10:15:10;;;;;;;;;;;;;;;27.11;nan;100826.44;5017150;28;20383;-83
2023/05/15 10:17:35;;;;;;;;;;;;;;;27.26;nan;100811.84;5017518;28;19979;-82
2023/05/15 10:20:05;;;;;;;;;;;;;;;27.40;nan;100808.59;5016389;28;19957;-82
2023/05/15 10:22:34;;;;;;;;;;;;;;;27.46;nan;100803.59;5021886;28;19963;-82
2023/05/15 10:25:02;;;;;;;;;;;;;;;27.56;nan;100806.59;5025699;28;19917;-83
2023/05/15 10:27:29;;;;;;;;;;;;;;;27.76;nan;100801.13;5024208;28;19921;-81
2023/05/15 10:29:55;;;;;;;;;;;;;;;27.95;nan;100793.63;5022961;28;19925;-82
2023/05/15 10:32:21;;;;;;;;;;;;;;;27.99;nan;100788.97;5024389;28;19928;-83
2023/05/15 10:34:47;;;;;;;;;;;;;;;28.05;nan;100792.25;5019366;28;19995;-82
2023/05/15 10:37:13;;;;;;;;;;;;;;;28.18;nan;100773.56;5022767;28;20386;-82
2023/05/15 10:39:39;;;;;;;;;;;;;;;28.36;nan;100773.91;5016253;28;20373;-83
2023/05/15 10:42:06;;;;;;;;;;;;;;;28.51;nan;100768.28;5023112;28;19932;-83
2023/05/15 10:44:32;;;;;;;;;;;;;;;28.73;nan;100779.66;5022536;28;19925;-82
2023/05/15 10:46:58;;;;;;;;;;;;;;;28.89;nan;100777.56;5020409;28;20434;-82
2023/05/15 10:49:23;;;;;;;;;;;;;;;28.99;nan;100782.44;5024284;28;19949;-82
2023/05/15 10:51:51;;;;;;;;;;;;;;;28.99;nan;100770.63;5016829;28;19941;-82
2023/05/15 10:54:16;;;;;;;;;;;;;;;28.95;nan;100770.56;5017167;28;19925;-83
2023/05/15 10:56:41;;;;;;;;;;;;;;;28.89;nan;100769.28;5021625;28;19932;-83
2023/05/15 10:59:08;;;;;;;;;;;;;;;28.82;nan;100774.66;5020000;28;20575;-82
2023/05/15 11:01:34;;;;;;;;;;;;;;;28.68;nan;100786.28;5026745;28;20261;-84
2023/05/15 11:04:10;;;;;;;;;;;;;;;28.47;nan;100796.94;5026501;28;20157;-82
2023/05/15 11:06:37;;;;;;;;;;;;;;;28.26;nan;100794.63;5027778;28;19975;-84
2023/05/15 11:09:23;;;;;;;;;;;;;;;27.83;nan;100806.75;5026951;28;19932;-85
2023/05/15 11:11:59;;;;;;;;;;;;;;;27.37;nan;100799.13;5024488;28;19929;-85
2023/05/15 11:14:25;;;;;;;;;;;;;;;26.94;nan;100793.81;5024732;28;20012;-84
2023/05/15 11:16:54;;;;;;;;;;;;;;;26.68;nan;100797.91;5026889;28;19932;-85
2023/05/15 11:19:31;;;;;;;;;;;;;;;26.54;nan;100796.75;5028533;28;19936;-85
2023/05/15 11:22:00;;;;;;;;;;;;;;;26.41;nan;100787.81;5027055;28;19925;-85
2023/05/15 11:24:29;;;;;;;;;;;;;;;26.24;nan;100794.41;5025254;28;19913;-86
2023/05/15 11:26:58;;;;;;;;;;;;;;;26.09;nan;100786.94;5025823;28;19983;-85
2023/05/15 11:29:23;;;;;;;;;;;;;;;25.97;nan;100782.31;5031424;28;19928;-84
2023/05/15 11:31:49;;;;;;;;;;;;;;;25.86;nan;100770.25;5031145;28;19913;-84
2023/05/15 11:34:14;;;;;;;;;;;;;;;25.72;nan;100761.63;5028277;28;19923;-86
2023/05/15 11:36:42;;;;;;;;;;;;;;;25.65;nan;100755.91;5028102;28;20380;-86
2023/05/15 11:39:11;;;;;;;;;;;;;;;25.65;nan;100761.38;5026047;28;19989;-86
2023/05/15 11:41:36;;;;;;;;;;;;;;;25.71;nan;100755.34;5026236;28;19925;-85
2023/05/15 11:44:02;;;;;;;;;;;;;;;25.82;nan;100753.66;5028184;28;21769;-85
2023/05/15 11:46:27;;;;;;;;;;;;;;;25.92;nan;100748.84;5028060;28;19917;-84
2023/05/15 11:48:53;;;;;;;;;;;;;;;25.94;nan;100758.31;5021659;28;20434;-84
2023/05/15 11:51:25;;;;;;;;;;;;;;;26.01;nan;100754.94;5027823;28;19924;-85
2023/05/15 11:53:51;;;;;;;;;;;;;;;26.10;nan;100761.09;5024644;28;20018;-84
2023/05/15 11:56:18;;;;;;;;;;;;;;;26.26;nan;100755.59;5025329;28;20035;-84
2023/05/15 11:58:43;;;;;;;;;;;;;;;26.46;nan;100754.56;5027362;28;19923;-83
2023/05/15 12:01:09;;;;;;;;;;;;;;;26.63;nan;100754.22;5029409;28;19917;-84
2023/05/15 12:03:35;;;;;;;;;;;;;;;26.85;nan;100757.44;5024027;28;20273;-84
2023/05/15 12:06:01;;;;;;;;;;;;;;;27.06;nan;100760.72;5026358;28;20055;-84
2023/05/15 12:08:31;;;;;;;;;;;;;;;27.24;nan;100769.34;5026051;28;20030;-84
2023/05/15 12:10:57;;;;;;;;;;;;;;;27.39;nan;100772.03;5027475;28;19917;-84
2023/05/15 12:13:23;;;;;;;;;;;;;;;27.52;nan;100764.47;5028638;28;19952;-83
2023/05/15 12:15:48;;;;;;;;;;;;;;;27.60;nan;100766.19;5025939;28;19917;-83
2023/05/15 12:18:14;;;;;;;;;;;;;;;27.65;nan;100765.94;5027935;28;19925;-83
2023/05/15 12:20:45;;;;;;;;;;;;;;;27.63;nan;100768.22;5027003;28;20037;-84
2023/05/15 12:23:13;;;;;;;;;;;;;;;27.65;nan;100771.44;5022310;28;20485;-84
2023/05/15 12:25:39;;;;;;;;;;;;;;;27.62;nan;100769.34;5024471;28;19924;-83
2023/05/15 12:28:04;;;;;;;;;;;;;;;27.57;nan;100768.88;5022245;28;19925;-83
2023/05/15 12:30:31;;;;;;;;;;;;;;;27.55;nan;100773.94;5017877;28;19920;-85
2023/05/15 12:33:01;;;;;;;;;;;;;;;27.47;nan;100784.00;5008439;28;19927;-83
2023/05/15 12:35:27;;;;;;;;;;;;;;;27.33;nan;100784.50;5020590;28;19974;-83
2023/05/15 12:37:52;;;;;;;;;;;;;;;27.16;nan;100776.66;5021979;28;20487;-84
2023/05/15 12:40:19;;;;;;;;;;;;;;;27.01;nan;100785.75;5025230;28;19928;-84
2023/05/15 12:42:44;;;;;;;;;;;;;;;26.89;nan;100783.84;5020728;28;20251;-84
2023/05/15 12:45:14;;;;;;;;;;;;;;;26.81;nan;100782.13;5021235;28;20020;-84
2023/05/15 12:47:40;;;;;;;;;;;;;;;26.71;nan;100775.19;5023296;28;20020;-82
2023/05/15 12:50:15;;;;;;;;;;;;;;;26.60;nan;100770.63;5023233;28;19936;-83
2023/05/15 12:52:45;;;;;;;;;;;;;;;26.53;nan;100773.16;5020371;28;19979;-83